Terminal Aerodrome Forecast
Issued by NWS

Home | Current Version | Previous Version | Text Only | Print | Product List | Glossary On
Versions: 1 2 3 4 5 6 7 8 9 10 11 12 13 14 15 16 17 18 19 20
000
FTUS44 KHGX 251142
TAFSGR
TAF
KSGR 251142Z 2512/2612 17007KT P6SM FEW025 SCT250
     FM251500 18014G24KT P6SM SCT025
     FM251900 18014G24KT P6SM BKN035
     FM260200 17013G23KT P6SM SCT015 BKN025
     FM260600 17014KT P6SM BKN015=

USA.gov is the U.S. government's official web portal to all federal, state and local government web resources and services.